CST,Max TemperatureF,Mean TemperatureF,Min TemperatureF,Max Dew PointF,MeanDew PointF,Min DewpointF,Max Humidity, Mean Humidity, Min Humidity, Max Sea Level PressureIn, Mean Sea Level PressureIn, Min Sea Level PressureIn, Max VisibilityMiles, Mean VisibilityMiles, Min VisibilityMiles, Max Wind SpeedMPH, Mean Wind SpeedMPH, Max Gust SpeedMPH,PrecipitationIn, CloudCover, Events, WindDirDegrees
2012-12-1,39,34,30,36,31,27,93,84,75,30.07,29.84,29.66,10,4,0,20,8,31,0.02,8,,177
2012-12-2,37,35,33,34,31,28,93,83,75,29.95,29.88,29.77,10,4,0,10,6,,0.01,7,,229
2012-12-3,53,45,37,48,39,28,93,79,57,29.81,29.62,29.46,10,8,2,24,16,34,0.01,4,,194
2012-12-4,41,31,21,27,14,9,68,58,50,30.28,30.00,29.67,10,10,10,26,18,34,0.00,4,,285
2012-12-5,33,27,21,16,13,12,74,55,44,30.37,30.18,29.88,10,10,10,23,8,34,0.00,5,,169
2012-12-6,41,34,26,34,25,18,81,68,52,29.87,29.76,29.66,10,10,3,22,15,31,0.00,7,,226
2012-12-7,26,25,24,19,17,14,74,68,59,30.00,29.96,29.87,10,10,10,13,7,17,0.00,7,,277
2012-12-8,28,24,19,19,17,14,86,71,64,30.09,30.02,29.98,10,10,10,7,4,,0.00,6,,332
2012-12-9,30,27,24,21,18,16,86,70,60,30.11,29.98,29.79,10,8,1,13,6,,0.00,5,,93
2012-12-10,26,22,19,21,18,14,93,81,74,29.80,29.78,29.77,10,8,3,10,3,,0.00,8,,247
2012-12-11,19,16,12,14,8,3,80,70,62,29.96,29.77,29.70,10,9,2,16,8,22,0.00,7,,225
2012-12-12,39,24,10,23,13,1,79,64,52,30.02,29.92,29.84,10,10,10,17,8,25,0.01,4,,181
2012-12-13,39,32,26,27,24,19,86,78,52,30.10,30.00,29.88,10,8,2,18,8,22,0.01,8,,297
2012-12-14,33,28,23,25,21,18,86,74,60,30.13,30.07,29.94,10,10,10,14,5,21,0.00,4,,126
2012-12-15,39,34,30,32,29,23,87,78,70,29.94,29.66,29.48,10,10,5,17,9,25,0.15,5,,117
2012-12-16,35,30,24,30,27,19,93,84,80,29.64,29.55,29.47,10,6,0,15,6,17,0.08,8,,269
2012-12-17,24,24,23,19,19,18,86,80,74,29.68,29.65,29.63,10,10,10,14,10,16,0.00,8,,250
2012-12-18,28,22,17,19,18,10,86,75,64,29.76,29.69,29.64,10,10,10,6,1,,0.00,6,,153
2012-12-19,28,22,15,23,18,9,86,79,73,29.98,29.89,29.77,10,9,4,12,3,,0.00,5,,195
2012-12-20,30,27,24,27,23,19,93,84,74,29.93,29.78,29.67,8,2,0,21,5,33,0.00,7,,4
2012-12-21,26,18,10,19,13,3,86,77,63,30.11,30.02,29.79,10,10,10,20,14,29,0.00,7,,308
2012-12-22,28,14,0,18,7,-9,92,70,51,30.10,29.96,29.85,10,10,10,14,5,22,0.00,3,,261
2012-12-23,19,16,12,14,9,3,80,71,63,30.04,30.00,29.95,10,9,4,14,9,20,0.00,8,,301
2012-12-24,15,12,10,10,8,3,86,77,67,30.15,30.00,29.94,10,6,2,14,7,,0.00,8,,263
2012-12-25,12,0,-13,7,-1,-22,92,75,60,30.38,30.29,30.15,10,9,2,14,7,,0.00,5,,255
2012-12-26,15,5,-5,9,0,-15,100,80,60,30.33,30.26,30.20,10,9,1,4,0,,0.00,4,,240
2012-12-27,23,16,10,14,11,7,86,75,63,30.22,30.18,30.12,10,10,2,12,2,,0.00,8,,85
2012-12-28,23,18,12,14,11,7,86,73,63,30.12,30.03,29.94,10,9,4,10,4,,0.00,7,,108
2012-12-29,21,14,8,16,9,0,92,77,67,30.01,29.95,29.91,10,9,2,14,3,18,0.00,8,,254
2012-12-30,23,16,8,12,7,1,79,66,58,30.09,29.96,29.79,10,10,9,15,9,24,0.00,4,,220
2012-12-31,19,14,8,12,5,1,85,72,62,30.10,29.99,29.78,10,7,1,23,12,29,0.00,8,,289